createdAt,value
2023-04-19T00:00:41.096Z,942.13
2023-04-19T00:01:41.030Z,942.12
2023-04-19T00:02:42.842Z,942.09
2023-04-19T00:03:41.176Z,942.18
2023-04-19T00:04:41.126Z,942.11
2023-04-19T00:05:41.016Z,942.10
2023-04-19T00:06:41.067Z,942.06
2023-04-19T00:07:40.978Z,942.07
2023-04-19T00:08:40.940Z,942.07
2023-04-19T00:09:40.928Z,942.04
2023-04-19T00:10:41.543Z,942.07
2023-04-19T00:11:41.014Z,942.00
2023-04-19T00:12:40.937Z,942.07
2023-04-19T00:13:40.896Z,942.05
2023-04-19T00:14:40.930Z,941.99
2023-04-19T00:15:40.930Z,942.04
2023-04-19T00:16:45.700Z,942.05
2023-04-19T00:17:40.880Z,942.04
2023-04-19T00:18:40.868Z,942.06
2023-04-19T00:19:40.856Z,942.02
2023-04-19T00:20:40.851Z,942.04
2023-04-19T00:21:40.822Z,942.03
2023-04-19T00:22:40.800Z,942.01
2023-04-19T00:23:40.786Z,941.99
2023-04-19T00:24:40.833Z,942.05
2023-04-19T00:25:40.769Z,942.04
2023-04-19T00:26:40.762Z,941.98
2023-04-19T00:27:40.779Z,941.95
2023-04-19T00:28:40.805Z,941.99
2023-04-19T00:29:40.776Z,941.95
2023-04-19T00:30:40.752Z,941.98
2023-04-19T00:31:40.729Z,941.91
2023-04-19T00:32:40.794Z,941.96
2023-04-19T00:33:40.725Z,941.95
2023-04-19T00:34:40.787Z,941.96
2023-04-19T00:35:40.660Z,941.93
2023-04-19T00:36:40.651Z,941.93
2023-04-19T00:37:40.662Z,941.92
2023-04-19T00:38:40.774Z,941.94
2023-04-19T00:39:40.677Z,941.94
2023-04-19T00:40:40.693Z,941.87
2023-04-19T00:41:40.630Z,941.90
2023-04-19T00:42:40.671Z,941.88
2023-04-19T00:43:40.594Z,941.86
2023-04-19T00:44:40.635Z,941.79
2023-04-19T00:45:40.594Z,941.86
2023-04-19T00:46:40.621Z,941.84
2023-04-19T00:47:40.567Z,941.82
2023-04-19T00:48:40.612Z,941.82
2023-04-19T00:49:40.526Z,941.84
2023-04-19T00:50:40.532Z,941.77
2023-04-19T00:51:40.491Z,941.82
2023-04-19T00:52:40.499Z,941.81
2023-04-19T00:53:40.478Z,941.84
2023-04-19T00:54:40.486Z,941.77
2023-04-19T00:55:40.447Z,941.79
2023-04-19T00:56:40.523Z,941.81
2023-04-19T00:57:40.442Z,941.68
2023-04-19T00:58:40.466Z,941.77
2023-04-19T00:59:40.438Z,941.76
2023-04-19T01:00:40.393Z,941.76
2023-04-19T01:01:40.439Z,941.79
2023-04-19T01:02:40.457Z,941.77
2023-04-19T01:03:40.576Z,941.76
2023-04-19T01:04:40.424Z,941.74
2023-04-19T01:05:40.391Z,941.77
2023-04-19T01:06:40.327Z,941.75
2023-04-19T01:07:40.323Z,941.76
2023-04-19T01:08:40.316Z,941.75
2023-04-19T01:09:40.321Z,941.74
2023-04-19T01:10:40.288Z,941.72
2023-04-19T01:11:41.898Z,941.67
2023-04-19T01:12:40.273Z,941.67
2023-04-19T01:13:40.334Z,941.70
2023-04-19T01:14:40.258Z,941.64
2023-04-19T01:15:40.316Z,941.61
2023-04-19T01:16:40.288Z,941.61
2023-04-19T01:17:40.289Z,941.59
2023-04-19T01:18:40.228Z,941.63
2023-04-19T01:19:40.202Z,941.57
2023-04-19T01:20:40.208Z,941.52
2023-04-19T01:21:40.179Z,941.55
2023-04-19T01:22:40.231Z,941.60
2023-04-19T01:23:40.170Z,941.56
2023-04-19T01:24:40.167Z,941.49
2023-04-19T01:25:40.137Z,941.60
2023-04-19T01:26:40.190Z,941.57
2023-04-19T01:27:40.134Z,941.55
2023-04-19T01:28:40.197Z,941.56
2023-04-19T01:29:40.134Z,941.51
2023-04-19T01:30:40.082Z,941.55
2023-04-19T01:31:40.320Z,941.50
2023-04-19T01:32:40.128Z,941.52
2023-04-19T01:33:40.131Z,941.49
2023-04-19T01:34:40.099Z,941.50
2023-04-19T01:35:40.035Z,941.51
2023-04-19T01:36:40.044Z,941.52
2023-04-19T01:37:40.031Z,941.54
2023-04-19T01:38:40.037Z,941.57
2023-04-19T01:39:39.991Z,941.51
2023-04-19T01:40:39.987Z,941.54
2023-04-19T01:41:40.053Z,941.48
2023-04-19T01:42:39.955Z,941.49
2023-04-19T01:43:39.993Z,941.45
2023-04-19T01:44:39.939Z,941.45
2023-04-19T01:45:39.990Z,941.45
2023-04-19T01:46:39.982Z,941.48
2023-04-19T01:47:39.956Z,941.46
2023-04-19T01:48:39.897Z,941.42
2023-04-19T01:49:39.885Z,941.43
2023-04-19T01:50:39.917Z,941.36
2023-04-19T01:51:39.915Z,941.34
2023-04-19T01:52:39.854Z,941.40
2023-04-19T01:53:39.878Z,941.35
2023-04-19T01:54:39.853Z,941.40
2023-04-19T01:55:39.822Z,941.35
2023-04-19T01:56:39.854Z,941.37
2023-04-19T01:57:40.064Z,941.34
2023-04-19T01:58:39.799Z,941.35
2023-04-19T01:59:39.821Z,941.31
2023-04-19T02:00:39.804Z,941.37
2023-04-19T02:01:39.762Z,941.27
2023-04-19T02:02:39.869Z,941.30
2023-04-19T02:03:39.990Z,941.28
2023-04-19T02:04:39.822Z,941.32
2023-04-19T02:05:39.748Z,941.33
2023-04-19T02:06:39.760Z,941.35
2023-04-19T02:07:39.694Z,941.35
2023-04-19T02:08:39.687Z,941.32
2023-04-19T02:09:39.809Z,941.30
2023-04-19T02:10:39.719Z,941.29
2023-04-19T02:11:39.665Z,941.28
2023-04-19T02:12:39.682Z,941.29
2023-04-19T02:13:39.693Z,941.30
2023-04-19T02:14:39.663Z,941.32
2023-04-19T02:15:39.616Z,941.32
2023-04-19T02:16:39.662Z,941.32
2023-04-19T02:17:39.610Z,941.33
2023-04-19T02:18:39.599Z,941.37
2023-04-19T02:19:39.652Z,941.25
2023-04-19T02:20:39.644Z,941.29
2023-04-19T02:21:39.565Z,941.31
2023-04-19T02:22:39.555Z,941.29
2023-04-19T02:23:39.554Z,941.35
2023-04-19T02:24:39.529Z,941.31
2023-04-19T02:25:39.518Z,941.25
2023-04-19T02:26:39.542Z,941.26
2023-04-19T02:27:39.498Z,941.26
2023-04-19T02:28:39.507Z,941.28
2023-04-19T02:29:39.470Z,941.26
2023-04-19T02:30:39.537Z,941.21
2023-04-19T02:31:39.536Z,941.29
2023-04-19T02:32:39.528Z,941.23
2023-04-19T02:33:39.446Z,941.28
2023-04-19T02:34:39.436Z,941.27
2023-04-19T02:35:39.456Z,941.27
2023-04-19T02:36:39.439Z,941.27
2023-04-19T02:37:39.397Z,941.30
2023-04-19T02:38:39.379Z,941.27
2023-04-19T02:39:39.394Z,941.22
2023-04-19T02:40:39.402Z,941.28
2023-04-19T02:41:39.387Z,941.24
2023-04-19T02:42:39.349Z,941.24
2023-04-19T02:43:39.369Z,941.22
2023-04-19T02:44:39.321Z,941.23
2023-04-19T02:45:39.363Z,941.18
2023-04-19T02:46:39.298Z,941.20
2023-04-19T02:47:39.616Z,941.16
2023-04-19T02:48:39.263Z,941.20
2023-04-19T02:49:39.279Z,941.12
2023-04-19T02:50:39.248Z,941.13
2023-04-19T02:51:39.274Z,941.10
2023-04-19T02:52:39.255Z,941.10
2023-04-19T02:53:39.224Z,941.11
2023-04-19T02:54:39.210Z,941.06
2023-04-19T02:55:39.263Z,941.13
2023-04-19T02:56:39.204Z,941.08
2023-04-19T02:57:39.177Z,941.09
2023-04-19T02:58:39.201Z,941.07
2023-04-19T02:59:39.172Z,941.09
2023-04-19T03:00:39.167Z,941.06
2023-04-19T03:01:39.420Z,940.99
2023-04-19T03:02:39.183Z,941.01
2023-04-19T03:03:39.201Z,941.01
2023-04-19T03:04:39.129Z,940.99
2023-04-19T03:05:39.165Z,941.03
2023-04-19T03:06:39.604Z,940.96
2023-04-19T03:07:39.151Z,941.01
2023-04-19T03:08:39.058Z,940.94
2023-04-19T03:09:39.051Z,940.95
2023-04-19T03:10:39.047Z,940.97
2023-04-19T03:11:39.037Z,940.98
2023-04-19T03:12:39.070Z,940.96
2023-04-19T03:13:39.016Z,940.99
2023-04-19T03:14:39.021Z,941.00
2023-04-19T03:15:39.086Z,940.98
2023-04-19T03:16:38.993Z,940.99
2023-04-19T03:17:39.006Z,941.00
2023-04-19T03:18:38.962Z,941.02
2023-04-19T03:19:38.980Z,940.99
2023-04-19T03:20:46.739Z,940.96
2023-04-19T03:21:38.941Z,940.97
2023-04-19T03:22:38.951Z,940.98
2023-04-19T03:23:38.935Z,940.99
2023-04-19T03:24:38.924Z,940.97
2023-04-19T03:25:38.900Z,940.98
2023-04-19T03:26:38.979Z,940.98
2023-04-19T03:27:38.868Z,940.98
2023-04-19T03:28:38.851Z,940.98
2023-04-19T03:29:38.884Z,940.99
2023-04-19T03:30:38.870Z,940.95
2023-04-19T03:31:38.888Z,940.97
2023-04-19T03:32:38.840Z,940.92
2023-04-19T03:33:38.783Z,940.95
2023-04-19T03:34:38.780Z,940.96
2023-04-19T03:35:38.827Z,940.89
2023-04-19T03:36:38.754Z,940.94
2023-04-19T03:37:38.786Z,940.96
2023-04-19T03:38:38.778Z,940.90
2023-04-19T03:39:38.757Z,940.89
2023-04-19T03:40:38.749Z,940.92
2023-04-19T03:41:39.591Z,940.89
2023-04-19T03:42:38.699Z,940.88
2023-04-19T03:43:38.689Z,940.86
2023-04-19T03:44:38.683Z,940.83
2023-04-19T03:45:38.664Z,940.86
2023-04-19T03:46:38.786Z,940.89
2023-04-19T03:47:38.707Z,940.84
2023-04-19T03:48:38.668Z,940.84
2023-04-19T03:49:38.632Z,940.87
2023-04-19T03:50:38.644Z,940.87
2023-04-19T03:51:38.769Z,940.84
2023-04-19T03:52:38.640Z,940.84
2023-04-19T03:53:38.599Z,940.89
2023-04-19T03:54:38.619Z,940.90
2023-04-19T03:55:38.584Z,940.89
2023-04-19T03:56:38.535Z,940.84
2023-04-19T03:57:38.578Z,940.94
2023-04-19T03:58:38.965Z,940.89
2023-04-19T03:59:38.542Z,940.91
2023-04-19T04:00:38.683Z,940.91
2023-04-19T04:01:38.572Z,940.93
2023-04-19T04:02:38.640Z,940.93
2023-04-19T04:03:38.701Z,940.98
2023-04-19T04:04:38.765Z,940.92
2023-04-19T04:05:38.539Z,940.88
2023-04-19T04:06:38.521Z,940.94
2023-04-19T04:07:38.432Z,940.89
2023-04-19T04:08:38.438Z,940.92
2023-04-19T04:09:39.104Z,940.90
2023-04-19T04:10:38.394Z,940.91
2023-04-19T04:11:38.452Z,940.91
2023-04-19T04:12:39.099Z,940.86
2023-04-19T04:13:38.362Z,940.87
2023-04-19T04:14:38.525Z,940.88
2023-04-19T04:15:38.419Z,940.93
2023-04-19T04:16:38.475Z,940.92
2023-04-19T04:17:38.442Z,940.90
2023-04-19T04:18:38.377Z,940.91
2023-04-19T04:19:38.299Z,940.94
2023-04-19T04:20:38.317Z,940.95
2023-04-19T04:21:38.291Z,940.93
2023-04-19T04:22:38.356Z,940.98
2023-04-19T04:23:38.345Z,940.95
2023-04-19T04:24:38.283Z,940.96
2023-04-19T04:25:38.356Z,940.91
2023-04-19T04:26:38.237Z,941.01
2023-04-19T04:27:38.550Z,940.97
2023-04-19T04:28:38.215Z,940.99
2023-04-19T04:29:38.194Z,940.99
2023-04-19T04:30:38.428Z,940.96
2023-04-19T04:31:38.441Z,941.02
2023-04-19T04:32:38.262Z,941.03
2023-04-19T04:33:38.156Z,941.05
2023-04-19T04:34:38.206Z,941.06
2023-04-19T04:35:38.172Z,941.02
2023-04-19T04:36:38.201Z,941.04
2023-04-19T04:37:38.122Z,941.07
2023-04-19T04:38:38.175Z,941.06
2023-04-19T04:39:38.097Z,941.02
2023-04-19T04:40:38.090Z,941.03
2023-04-19T04:41:38.231Z,941.05
2023-04-19T04:42:38.170Z,941.02
2023-04-19T04:43:38.257Z,941.03
2023-04-19T04:44:38.320Z,941.00
2023-04-19T04:45:38.173Z,941.05
2023-04-19T04:46:42.643Z,941.02
2023-04-19T04:47:38.130Z,941.03
2023-04-19T04:48:38.033Z,941.01
2023-04-19T04:49:38.086Z,940.98
2023-04-19T04:50:38.004Z,940.95
2023-04-19T04:51:37.985Z,940.97
2023-04-19T04:52:37.977Z,940.97
2023-04-19T04:53:38.028Z,940.95
2023-04-19T04:54:37.991Z,940.96
2023-04-19T04:55:37.935Z,940.99
2023-04-19T04:56:38.044Z,940.94
2023-04-19T04:57:37.922Z,940.95
2023-04-19T04:58:37.936Z,940.99
2023-04-19T04:59:37.989Z,941.00
2023-04-19T05:00:37.928Z,940.97
2023-04-19T05:01:37.969Z,940.97
2023-04-19T05:02:38.016Z,940.97
2023-04-19T05:03:37.884Z,940.99
2023-04-19T05:04:37.877Z,941.00
2023-04-19T05:05:37.876Z,941.00
2023-04-19T05:06:37.875Z,941.00
2023-04-19T05:07:37.842Z,940.94
2023-04-19T05:08:37.829Z,940.97
2023-04-19T05:09:37.816Z,940.99
2023-04-19T05:10:37.864Z,940.95
2023-04-19T05:11:37.768Z,940.97
2023-04-19T05:12:37.748Z,940.97
2023-04-19T05:13:37.735Z,940.90
2023-04-19T05:14:37.817Z,940.98
2023-04-19T05:15:37.759Z,940.97
2023-04-19T05:16:48.911Z,940.92
2023-04-19T05:17:37.836Z,940.94
2023-04-19T05:18:37.687Z,940.91
2023-04-19T05:19:37.670Z,940.92
2023-04-19T05:20:37.667Z,940.91
2023-04-19T05:21:37.677Z,940.88
2023-04-19T05:22:37.783Z,940.93
2023-04-19T05:23:37.633Z,940.94
2023-04-19T05:24:37.660Z,940.98
2023-04-19T05:25:37.620Z,940.95
2023-04-19T05:26:38.626Z,940.99
2023-04-19T05:27:37.636Z,940.98
2023-04-19T05:28:37.663Z,940.95
2023-04-19T05:29:37.563Z,940.92
2023-04-19T05:30:38.041Z,940.95
2023-04-19T05:31:37.729Z,940.92
2023-04-19T05:32:37.814Z,940.84
2023-04-19T05:33:37.754Z,940.84
2023-04-19T05:34:37.601Z,940.82
2023-04-19T05:35:37.799Z,940.85
2023-04-19T05:36:37.677Z,940.86
2023-04-19T05:37:37.674Z,940.84
2023-04-19T05:38:37.473Z,940.85
2023-04-19T05:39:37.621Z,940.88
2023-04-19T05:40:37.456Z,940.88
2023-04-19T05:41:37.433Z,940.90
2023-04-19T05:42:37.485Z,940.88
2023-04-19T05:43:37.426Z,940.90
2023-04-19T05:44:37.420Z,940.88
2023-04-19T05:45:37.401Z,940.89
2023-04-19T05:46:42.198Z,940.90
2023-04-19T05:47:37.419Z,940.94
2023-04-19T05:48:37.396Z,940.91
2023-04-19T05:49:37.390Z,940.87
2023-04-19T05:50:37.379Z,940.88
2023-04-19T05:51:37.339Z,940.91
2023-04-19T05:52:37.340Z,940.95
2023-04-19T05:53:37.425Z,940.95
2023-04-19T05:54:37.314Z,940.95
2023-04-19T05:55:37.443Z,940.97
2023-04-19T05:56:37.293Z,940.96
2023-04-19T05:57:37.276Z,940.96
2023-04-19T05:58:37.275Z,940.99
2023-04-19T05:59:37.293Z,940.96
2023-04-19T06:00:37.280Z,940.97
2023-04-19T06:01:37.280Z,940.98
2023-04-19T06:02:37.366Z,940.95
2023-04-19T06:03:37.549Z,940.94
2023-04-19T06:04:37.907Z,940.93
2023-04-19T06:05:37.209Z,940.93
2023-04-19T06:06:37.217Z,940.96
2023-04-19T06:07:40.699Z,940.98
2023-04-19T06:08:38.284Z,940.93
2023-04-19T06:09:37.188Z,941.01
2023-04-19T06:10:49.661Z,940.95
2023-04-19T06:11:47.056Z,940.98
2023-04-19T06:12:38.197Z,940.95
2023-04-19T06:13:37.308Z,940.98
2023-04-19T06:14:37.174Z,940.93
2023-04-19T06:15:37.077Z,940.95
2023-04-19T06:16:37.151Z,940.94
2023-04-19T06:17:37.105Z,940.97
2023-04-19T06:18:37.199Z,940.94
2023-04-19T06:19:37.048Z,940.94
2023-04-19T06:20:37.076Z,941.03
2023-04-19T06:21:37.107Z,940.96
2023-04-19T06:22:37.104Z,940.97
2023-04-19T06:23:37.050Z,940.97
2023-04-19T06:24:37.106Z,940.96
2023-04-19T06:25:36.992Z,941.01
2023-04-19T06:26:37.017Z,941.00
2023-04-19T06:27:37.010Z,941.00
2023-04-19T06:28:36.973Z,941.06
2023-04-19T06:29:37.076Z,941.04
2023-04-19T06:30:37.043Z,941.04
2023-04-19T06:31:37.034Z,941.00
2023-04-19T06:32:37.052Z,940.99
2023-04-19T06:33:36.991Z,941.03
2023-04-19T06:34:36.922Z,941.06
2023-04-19T06:35:36.873Z,941.06
2023-04-19T06:36:36.921Z,941.06
2023-04-19T06:37:36.873Z,941.05
2023-04-19T06:38:36.844Z,940.99
2023-04-19T06:39:36.833Z,940.99
2023-04-19T06:40:36.840Z,941.03
2023-04-19T06:41:36.839Z,941.06
2023-04-19T06:42:36.824Z,941.02
2023-04-19T06:43:36.877Z,941.03
2023-04-19T06:44:36.893Z,941.00
2023-04-19T06:45:36.810Z,941.01
2023-04-19T06:46:36.840Z,941.02
2023-04-19T06:47:36.892Z,940.96
2023-04-19T06:48:36.740Z,940.98
2023-04-19T06:49:36.753Z,940.96
2023-04-19T06:50:36.726Z,941.00
2023-04-19T06:51:36.785Z,940.99
2023-04-19T06:52:36.772Z,941.04
2023-04-19T06:53:36.728Z,940.97
2023-04-19T06:54:36.715Z,941.01
2023-04-19T06:55:36.669Z,940.98
2023-04-19T06:56:36.657Z,940.97
2023-04-19T06:57:36.659Z,940.94
2023-04-19T06:58:36.677Z,940.93
2023-04-19T06:59:36.766Z,940.89
2023-04-19T07:00:36.677Z,940.91
2023-04-19T07:01:36.678Z,940.89
2023-04-19T07:02:36.722Z,940.85
2023-04-19T07:03:36.774Z,940.90
2023-04-19T07:04:36.790Z,940.88
2023-04-19T07:05:36.558Z,940.90
2023-04-19T07:06:36.768Z,940.90
2023-04-19T07:07:36.544Z,940.92
2023-04-19T07:08:49.264Z,940.90
2023-04-19T07:09:37.624Z,940.93
2023-04-19T07:10:36.518Z,940.93
2023-04-19T07:11:36.501Z,940.89
2023-04-19T07:12:36.524Z,940.85
2023-04-19T07:13:36.525Z,940.88
2023-04-19T07:14:36.544Z,940.91
2023-04-19T07:15:36.549Z,940.89
2023-04-19T07:16:36.464Z,940.87
2023-04-19T07:17:36.610Z,940.90
2023-04-19T07:18:36.465Z,940.87
2023-04-19T07:19:36.485Z,940.91
2023-04-19T07:20:36.396Z,940.87
2023-04-19T07:21:36.419Z,940.88
2023-04-19T07:22:36.591Z,940.87
2023-04-19T07:23:36.413Z,940.86
2023-04-19T07:24:36.440Z,940.89
2023-04-19T07:25:36.355Z,940.86
2023-04-19T07:26:36.357Z,940.87
2023-04-19T07:27:36.342Z,940.94
2023-04-19T07:28:36.321Z,940.89
2023-04-19T07:29:36.548Z,940.96
2023-04-19T07:30:36.306Z,940.94
2023-04-19T07:31:36.351Z,940.93
2023-04-19T07:32:36.452Z,940.93
2023-04-19T07:33:36.325Z,940.94
2023-04-19T07:34:36.357Z,940.94
2023-04-19T07:35:36.416Z,940.94
2023-04-19T07:36:36.253Z,940.86
2023-04-19T07:37:36.422Z,940.89
2023-04-19T07:38:36.439Z,940.86
2023-04-19T07:39:36.235Z,940.89
2023-04-19T07:40:36.193Z,940.87
2023-04-19T07:41:37.291Z,940.87
2023-04-19T07:42:36.273Z,940.86
2023-04-19T07:43:37.283Z,940.82
2023-04-19T07:44:36.220Z,940.87
2023-04-19T07:45:36.143Z,940.85
2023-04-19T07:46:36.236Z,940.88
2023-04-19T07:47:36.214Z,940.87
2023-04-19T07:48:36.095Z,940.89
2023-04-19T07:49:36.094Z,940.93
2023-04-19T07:50:36.091Z,940.88
2023-04-19T07:51:36.677Z,940.91
2023-04-19T07:52:36.111Z,940.89
2023-04-19T07:53:36.110Z,940.90
2023-04-19T07:54:36.263Z,940.87
2023-04-19T07:55:36.098Z,940.94
2023-04-19T07:56:36.100Z,940.88
2023-04-19T07:57:36.127Z,940.90
2023-04-19T07:58:36.001Z,940.94
2023-04-19T07:59:35.992Z,940.88
2023-04-19T08:00:36.076Z,940.87
2023-04-19T08:01:36.172Z,940.85
2023-04-19T08:02:36.115Z,940.87
2023-04-19T08:03:36.054Z,940.87
2023-04-19T08:04:36.193Z,940.86
2023-04-19T08:05:36.287Z,940.88
2023-04-19T08:06:35.922Z,940.87
2023-04-19T08:07:35.931Z,940.87
2023-04-19T08:08:35.949Z,940.87
2023-04-19T08:09:35.895Z,940.89
2023-04-19T08:10:35.914Z,940.90
2023-04-19T08:11:35.883Z,940.83
2023-04-19T08:12:42.796Z,940.83
2023-04-19T08:13:37.038Z,940.80
2023-04-19T08:14:47.571Z,940.82
2023-04-19T08:16:20.317Z,940.88
2023-04-19T08:17:41.733Z,940.88
2023-04-19T08:18:36.851Z,940.82
2023-04-19T08:19:36.673Z,940.82
2023-04-19T08:20:35.765Z,940.88
2023-04-19T08:21:43.934Z,940.85
2023-04-19T08:22:35.744Z,940.85
2023-04-19T08:23:47.307Z,940.83
2023-04-19T08:24:36.738Z,940.81
2023-04-19T08:25:35.716Z,940.84
2023-04-19T08:26:36.073Z,940.84
2023-04-19T08:27:35.761Z,940.87
2023-04-19T08:28:35.784Z,940.82
2023-04-19T08:29:35.728Z,940.87
2023-04-19T08:30:35.672Z,940.79
2023-04-19T08:31:35.696Z,940.81
2023-04-19T08:32:35.731Z,940.80
2023-04-19T08:33:35.694Z,940.83
2023-04-19T08:34:36.199Z,940.83
2023-04-19T08:35:35.640Z,940.81
2023-04-19T08:36:43.352Z,940.81
2023-04-19T08:37:36.598Z,940.81
2023-04-19T08:38:35.644Z,940.82
2023-04-19T08:39:35.814Z,940.80
2023-04-19T08:40:35.641Z,940.77
2023-04-19T08:41:35.575Z,940.85
2023-04-19T08:42:37.034Z,940.82
2023-04-19T08:43:35.817Z,940.84
2023-04-19T08:44:36.703Z,940.82
2023-04-19T08:45:35.534Z,940.84
2023-04-19T08:46:35.740Z,940.81
2023-04-19T08:47:37.232Z,940.79
2023-04-19T08:48:36.652Z,940.76
2023-04-19T08:49:35.474Z,940.79
2023-04-19T08:50:45.543Z,940.75
2023-04-19T08:51:36.686Z,940.76
2023-04-19T08:52:39.269Z,940.77
2023-04-19T08:53:36.620Z,940.74
2023-04-19T08:54:35.443Z,940.76
2023-04-19T08:55:35.418Z,940.77
2023-04-19T08:56:36.049Z,940.75
2023-04-19T08:57:35.453Z,940.72
2023-04-19T08:58:50.285Z,940.73
2023-04-19T08:59:36.359Z,940.77
2023-04-19T09:00:35.345Z,940.72
2023-04-19T09:01:36.633Z,940.70
2023-04-19T09:02:35.458Z,940.71
2023-04-19T09:03:44.247Z,940.69
2023-04-19T09:04:37.744Z,940.67
2023-04-19T09:05:35.501Z,940.67
2023-04-19T09:06:35.559Z,940.64
2023-04-19T09:07:35.292Z,940.68
2023-04-19T09:08:35.312Z,940.66
2023-04-19T09:09:43.115Z,940.62
2023-04-19T09:10:36.335Z,940.64
2023-04-19T09:11:35.258Z,940.61
2023-04-19T09:12:35.303Z,940.61
2023-04-19T09:13:35.344Z,940.61
2023-04-19T09:14:38.219Z,940.59
2023-04-19T09:15:35.239Z,940.61
2023-04-19T09:16:35.176Z,940.54
2023-04-19T09:17:35.181Z,940.59
2023-04-19T09:18:39.968Z,940.57
2023-04-19T09:19:36.206Z,940.56
2023-04-19T09:20:35.297Z,940.57
2023-04-19T09:21:35.131Z,940.57
2023-04-19T09:22:35.158Z,940.53
2023-04-19T09:23:35.708Z,940.52
2023-04-19T09:24:57.248Z,940.55
2023-04-19T09:25:52.405Z,940.53
2023-04-19T09:26:36.125Z,940.52
2023-04-19T09:27:35.089Z,940.52
2023-04-19T09:28:35.050Z,940.51
2023-04-19T09:29:35.032Z,940.47
2023-04-19T09:30:40.465Z,940.47
2023-04-19T09:31:50.521Z,940.47
2023-04-19T09:32:36.161Z,940.47
2023-04-19T09:33:35.012Z,940.52
2023-04-19T09:34:35.034Z,940.47
2023-04-19T09:35:35.031Z,940.48
2023-04-19T09:36:34.993Z,940.47
2023-04-19T09:37:57.207Z,940.44
2023-04-19T09:38:35.952Z,940.43
2023-04-19T09:39:34.927Z,940.46
2023-04-19T09:40:35.265Z,940.43
2023-04-19T09:41:36.337Z,940.40
2023-04-19T09:42:54.437Z,940.42
2023-04-19T09:44:00.724Z,940.41
2023-04-19T09:45:35.917Z,940.38
2023-04-19T09:46:35.104Z,940.37
2023-04-19T09:47:34.938Z,940.33
2023-04-19T09:48:34.869Z,940.36
2023-04-19T09:49:48.113Z,940.29
2023-04-19T09:50:46.740Z,940.32
2023-04-19T09:51:35.832Z,940.31
2023-04-19T09:52:34.809Z,940.27
2023-04-19T09:53:35.182Z,940.31
2023-04-19T09:54:34.836Z,940.33
2023-04-19T09:55:42.219Z,940.28
2023-04-19T09:56:35.812Z,940.29
2023-04-19T09:57:34.813Z,940.30
2023-04-19T09:58:48.905Z,940.27
2023-04-19T09:59:35.724Z,940.24
2023-04-19T10:00:41.945Z,940.24
2023-04-19T10:01:35.821Z,940.25
2023-04-19T10:02:34.849Z,940.19
2023-04-19T10:03:34.953Z,940.22
2023-04-19T10:04:54.681Z,940.23
2023-04-19T10:05:35.743Z,940.18
2023-04-19T10:06:51.808Z,940.17
2023-04-19T10:07:35.800Z,940.19
2023-04-19T10:08:34.639Z,940.18
2023-04-19T10:09:40.051Z,940.17
2023-04-19T10:10:42.118Z,940.13
2023-04-19T10:11:35.612Z,940.13
2023-04-19T10:13:34.598Z,940.16
2023-04-19T10:14:34.614Z,940.14
2023-04-19T10:15:47.282Z,940.14
2023-04-19T10:16:35.601Z,940.13
2023-04-19T10:17:34.551Z,940.13
2023-04-19T10:18:34.748Z,940.19
2023-04-19T10:19:34.588Z,940.10
2023-04-19T10:20:34.671Z,940.09
2023-04-19T10:21:34.551Z,940.07
2023-04-19T10:22:34.602Z,940.09
2023-04-19T10:23:34.488Z,940.09
2023-04-19T10:24:38.737Z,940.11
2023-04-19T10:25:35.469Z,940.11
2023-04-19T10:26:34.438Z,940.15
2023-04-19T10:27:34.430Z,940.09
2023-04-19T10:28:34.422Z,940.12
2023-04-19T10:29:34.511Z,940.07
2023-04-19T10:30:34.391Z,940.04
2023-04-19T10:31:34.520Z,940.03
2023-04-19T10:32:34.442Z,940.06
2023-04-19T10:33:34.428Z,940.06
2023-04-19T10:34:34.419Z,940.07
2023-04-19T10:35:34.380Z,940.06
2023-04-19T10:36:35.273Z,940.05
2023-04-19T10:37:34.418Z,940.01
2023-04-19T10:38:34.351Z,940.05
2023-04-19T10:39:34.342Z,939.99
2023-04-19T10:40:34.284Z,940.01
2023-04-19T10:41:34.394Z,940.03
2023-04-19T10:42:34.339Z,940.01
2023-04-19T10:43:34.316Z,940.03
2023-04-19T10:44:35.287Z,940.03
2023-04-19T10:45:34.284Z,939.97
2023-04-19T10:46:34.289Z,940.02
2023-04-19T10:47:34.327Z,939.96
2023-04-19T10:48:34.295Z,940.00
2023-04-19T10:49:34.733Z,939.98
2023-04-19T10:50:34.244Z,939.91
2023-04-19T10:51:34.236Z,939.89
2023-04-19T10:52:34.202Z,939.93
2023-04-19T10:53:34.204Z,939.94
2023-04-19T10:54:34.488Z,939.88
2023-04-19T10:55:34.177Z,939.90
2023-04-19T10:56:34.200Z,939.90
2023-04-19T10:57:34.753Z,939.82
2023-04-19T10:58:34.151Z,939.87
2023-04-19T10:59:34.140Z,939.81
2023-04-19T11:00:36.749Z,939.82
2023-04-19T11:01:34.208Z,939.83
2023-04-19T11:02:34.256Z,939.78
2023-04-19T11:03:34.235Z,939.76
2023-04-19T11:04:34.235Z,939.79
2023-04-19T11:05:34.098Z,939.75
2023-04-19T11:06:34.211Z,939.76
2023-04-19T11:07:34.071Z,939.81
2023-04-19T11:08:34.088Z,939.78
2023-04-19T11:09:34.008Z,939.73
2023-04-19T11:10:34.086Z,939.76
2023-04-19T11:11:34.750Z,939.71
2023-04-19T11:12:33.989Z,939.69
2023-04-19T11:13:34.122Z,939.71
2023-04-19T11:14:34.016Z,939.73
2023-04-19T11:15:34.025Z,939.68
2023-04-19T11:16:45.726Z,939.67
2023-04-19T11:17:34.958Z,939.66
2023-04-19T11:18:34.783Z,939.67
2023-04-19T11:19:33.923Z,939.61
2023-04-19T11:20:33.923Z,939.59
2023-04-19T11:21:33.893Z,939.62
2023-04-19T11:22:34.010Z,939.65
2023-04-19T11:23:33.951Z,939.60
2023-04-19T11:24:33.854Z,939.63
2023-04-19T11:25:33.970Z,939.62
2023-04-19T11:26:33.878Z,939.60
2023-04-19T11:27:33.822Z,939.58
2023-04-19T11:28:33.812Z,939.60
2023-04-19T11:29:33.822Z,939.58
2023-04-19T11:30:34.394Z,939.53
2023-04-19T11:31:33.784Z,939.52
2023-04-19T11:32:33.876Z,939.50
2023-04-19T11:33:33.790Z,939.48
2023-04-19T11:34:33.776Z,939.42
2023-04-19T11:35:33.881Z,939.47
2023-04-19T11:36:33.734Z,939.45
2023-04-19T11:37:36.154Z,939.39
2023-04-19T11:38:33.913Z,939.40
2023-04-19T11:39:33.689Z,939.41
2023-04-19T11:40:33.772Z,939.39
2023-04-19T11:41:33.690Z,939.39
2023-04-19T11:42:33.758Z,939.35
2023-04-19T11:43:33.638Z,939.40
2023-04-19T11:44:34.281Z,939.36
2023-04-19T11:45:38.207Z,939.32
2023-04-19T11:46:34.734Z,939.34
2023-04-19T11:47:33.761Z,939.29
2023-04-19T11:48:33.751Z,939.30
2023-04-19T11:49:34.297Z,939.31
2023-04-19T11:50:33.625Z,939.29
2023-04-19T11:51:33.795Z,939.22
2023-04-19T11:52:33.839Z,939.24
2023-04-19T11:53:33.733Z,939.21
2023-04-19T11:54:33.676Z,939.17
2023-04-19T11:55:33.607Z,939.16
2023-04-19T11:56:33.539Z,939.14
2023-04-19T11:57:33.701Z,939.12
2023-04-19T11:58:33.478Z,939.11
2023-04-19T11:59:33.573Z,939.13
2023-04-19T12:00:34.277Z,939.10
2023-04-19T12:01:33.450Z,939.10
2023-04-19T12:02:33.598Z,939.08
2023-04-19T12:03:33.848Z,939.09
2023-04-19T12:04:33.530Z,939.10
2023-04-19T12:05:33.934Z,939.07
2023-04-19T12:06:34.291Z,939.12
2023-04-19T12:07:33.542Z,939.09
2023-04-19T12:08:33.406Z,939.11
2023-04-19T12:09:33.503Z,939.10
2023-04-19T12:10:33.413Z,939.10
2023-04-19T12:11:34.283Z,939.09
2023-04-19T12:12:33.477Z,939.08
2023-04-19T12:13:33.815Z,939.05
2023-04-19T12:14:33.308Z,939.08
2023-04-19T12:15:33.286Z,939.07
2023-04-19T12:16:33.358Z,939.04
2023-04-19T12:17:33.318Z,938.99
2023-04-19T12:18:33.349Z,938.95
2023-04-19T12:19:33.338Z,938.93
2023-04-19T12:20:33.349Z,938.98
2023-04-19T12:21:33.300Z,938.97
2023-04-19T12:22:33.271Z,938.95
2023-04-19T12:23:33.199Z,938.89
2023-04-19T12:24:33.214Z,938.84
2023-04-19T12:25:33.240Z,938.84
2023-04-19T12:26:33.300Z,938.87
2023-04-19T12:27:33.210Z,938.80
2023-04-19T12:28:33.201Z,938.81
2023-04-19T12:29:33.172Z,938.75
2023-04-19T12:30:33.147Z,938.74
2023-04-19T12:31:33.142Z,938.75